Time;durP1;ratioP1;P1;durP2;ratioP2;P2;SDS_P1;SDS_P2;PMS_P1;PMS_P2;Temp;Humidity;BMP_temperature;BMP_pressure;BME280_temperature;BME280_humidity;BME280_pressure;Samples;Min_cycle;Max_cycle;Signal;HPM_P1;HPM_P2
2022/05/28 00:01:45;;;;;;;9.57;2.90;;;;;;;;;;6183264;23;20100;-65
2022/05/28 00:04:15;;;;;;;10.98;2.53;;;;;;;;;;6175199;23;20032;-65
2022/05/28 00:06:41;;;;;;;10.13;2.15;;;;;;;;;;6182375;23;20067;-65
2022/05/28 00:09:07;;;;;;;12.57;2.72;;;;;;;;;;6177722;23;20374;-65
2022/05/28 00:11:35;;;;;;;12.27;2.28;;;;;;;;;;6170286;23;20021;-65
2022/05/28 00:14:02;;;;;;;14.70;2.97;;;;;;;;;;6183102;23;20108;-65
2022/05/28 00:16:28;;;;;;;10.40;2.45;;;;;;;;;;6174669;23;20321;-65
2022/05/28 00:18:55;;;;;;;12.90;3.40;;;;;;;;;;6182828;23;20567;-65
2022/05/28 00:21:23;;;;;;;13.77;2.67;;;;;;;;;;6175462;23;20104;-65
2022/05/28 00:23:49;;;;;;;12.53;2.63;;;;;;;;;;6177167;23;20079;-67
2022/05/28 00:26:16;;;;;;;16.48;3.20;;;;;;;;;;6170174;23;20101;-65
2022/05/28 00:28:43;;;;;;;11.07;2.67;;;;;;;;;;6181998;23;20521;-65
2022/05/28 00:31:09;;;;;;;10.98;2.47;;;;;;;;;;6182145;23;20100;-66
2022/05/28 00:33:36;;;;;;;12.10;2.30;;;;;;;;;;6175956;23;20099;-65
2022/05/28 00:36:03;;;;;;;10.48;2.40;;;;;;;;;;6183507;23;20104;-65
2022/05/28 00:38:30;;;;;;;12.57;2.60;;;;;;;;;;6165654;23;20109;-63
2022/05/28 00:40:57;;;;;;;14.27;3.00;;;;;;;;;;6179931;23;20025;-66
2022/05/28 00:43:24;;;;;;;17.45;3.55;;;;;;;;;;6174650;23;20331;-65
2022/05/28 00:45:54;;;;;;;14.45;2.90;;;;;;;;;;6182844;23;20017;-65
2022/05/28 00:48:22;;;;;;;9.60;2.55;;;;;;;;;;6182313;23;20022;-66
2022/05/28 00:50:49;;;;;;;11.90;2.85;;;;;;;;;;6172692;23;20025;-65
2022/05/28 00:53:15;;;;;;;9.05;2.33;;;;;;;;;;6175644;23;20096;-65
2022/05/28 00:55:42;;;;;;;10.57;2.58;;;;;;;;;;6174300;23;20537;-65
2022/05/28 00:58:09;;;;;;;8.65;2.63;;;;;;;;;;6182459;23;20018;-65
2022/05/28 01:00:36;;;;;;;11.15;2.83;;;;;;;;;;6175985;23;20016;-65
2022/05/28 01:03:05;;;;;;;11.73;2.72;;;;;;;;;;6183533;23;20151;-65
2022/05/28 01:05:31;;;;;;;13.43;2.75;;;;;;;;;;6169990;23;20108;-66
2022/05/28 01:08:07;;;;;;;7.15;2.17;;;;;;;;;;6176957;23;20159;-65
2022/05/28 01:10:52;;;;;;;10.18;2.75;;;;;;;;;;6179240;23;20104;-65
2022/05/28 01:13:26;;;;;;;14.43;2.88;;;;;;;;;;6181763;23;20025;-65
2022/05/28 01:15:59;;;;;;;11.70;2.40;;;;;;;;;;6182436;23;20060;-65
2022/05/28 01:18:29;;;;;;;10.20;2.55;;;;;;;;;;6173538;23;20025;-65
2022/05/28 01:20:59;;;;;;;8.98;2.30;;;;;;;;;;6174084;23;20107;-66
2022/05/28 01:23:32;;;;;;;11.15;2.58;;;;;;;;;;6174006;23;20021;-65
2022/05/28 01:26:18;;;;;;;9.55;2.30;;;;;;;;;;6182039;23;20112;-65
2022/05/28 01:28:54;;;;;;;14.40;2.63;;;;;;;;;;6174455;23;20104;-66
2022/05/28 01:31:20;;;;;;;14.32;2.50;;;;;;;;;;6181553;23;20017;-65
2022/05/28 01:33:47;;;;;;;16.48;2.78;;;;;;;;;;6169371;23;20104;-65
2022/05/28 01:36:15;;;;;;;13.88;2.50;;;;;;;;;;6176259;23;20017;-65
2022/05/28 01:38:43;;;;;;;16.23;2.92;;;;;;;;;;6172792;23;20122;-65
2022/05/28 01:41:10;;;;;;;11.45;2.40;;;;;;;;;;6156054;23;20039;-65
2022/05/28 01:43:38;;;;;;;14.60;2.78;;;;;;;;;;6181927;23;20101;-66
2022/05/28 01:46:05;;;;;;;15.88;2.60;;;;;;;;;;6175441;23;20541;-65
2022/05/28 01:48:31;;;;;;;11.60;2.17;;;;;;;;;;6174005;23;20028;-65
2022/05/28 01:51:00;;;;;;;9.90;2.40;;;;;;;;;;6171912;23;20056;-65
2022/05/28 01:54:12;;;;;;;;;;;;;;;;;;6182030;23;20109;-65
2022/05/28 01:56:13;;;;;;;10.25;2.83;;;;;;;;;;6163628;23;19998;-65
2022/05/28 01:58:41;;;;;;;15.13;3.05;;;;;;;;;;6182118;23;20027;-64
2022/05/28 02:01:08;;;;;;;17.65;3.08;;;;;;;;;;6169383;23;20025;-65
2022/05/28 02:03:38;;;;;;;10.35;2.42;;;;;;;;;;6176657;23;20085;-65
2022/05/28 02:06:04;;;;;;;12.98;2.75;;;;;;;;;;6177614;23;20346;-65
2022/05/28 02:08:35;;;;;;;14.05;3.38;;;;;;;;;;6181161;23;20413;-65
2022/05/28 02:11:08;;;;;;;13.02;2.80;;;;;;;;;;6182377;23;20375;-65
2022/05/28 02:13:43;;;;;;;9.82;2.30;;;;;;;;;;6173744;23;20017;-65
2022/05/28 02:16:14;;;;;;;15.35;3.25;;;;;;;;;;6175384;23;20099;-65
2022/05/28 02:18:55;;;;;;;17.17;2.88;;;;;;;;;;6168493;23;20108;-65
2022/05/28 02:21:27;;;;;;;13.80;3.33;;;;;;;;;;6181490;23;20092;-65
2022/05/28 02:24:04;;;;;;;11.65;2.70;;;;;;;;;;6174819;23;20025;-65
2022/05/28 02:26:37;;;;;;;12.00;3.22;;;;;;;;;;6181382;23;20091;-66
2022/05/28 02:29:04;;;;;;;16.02;3.03;;;;;;;;;;6167231;23;20100;-65
2022/05/28 02:31:32;;;;;;;18.30;2.97;;;;;;;;;;6179662;23;20839;-65
2022/05/28 02:33:59;;;;;;;9.68;2.58;;;;;;;;;;6176679;23;20117;-65
2022/05/28 02:36:26;;;;;;;10.95;2.72;;;;;;;;;;6180081;23;20053;-65
2022/05/28 02:38:52;;;;;;;11.30;3.03;;;;;;;;;;6181834;23;20063;-65
2022/05/28 02:41:19;;;;;;;14.30;3.00;;;;;;;;;;6168817;23;20025;-65
2022/05/28 02:43:46;;;;;;;15.50;2.65;;;;;;;;;;6175279;23;20107;-65
2022/05/28 02:46:12;;;;;;;13.82;2.70;;;;;;;;;;6172625;23;20111;-65
2022/05/28 02:48:39;;;;;;;11.77;2.72;;;;;;;;;;6181519;23;20025;-65
2022/05/28 02:51:11;;;;;;;12.77;2.75;;;;;;;;;;6174135;23;20501;-65
2022/05/28 02:53:37;;;;;;;13.98;2.47;;;;;;;;;;6181567;23;20075;-64
2022/05/28 02:56:05;;;;;;;8.73;2.35;;;;;;;;;;6174547;23;20068;-65
2022/05/28 02:58:31;;;;;;;18.10;3.20;;;;;;;;;;6169777;23;20021;-65
2022/05/28 03:00:58;;;;;;;9.40;2.63;;;;;;;;;;6181752;23;20104;-65
2022/05/28 03:03:24;;;;;;;15.85;3.13;;;;;;;;;;6172863;23;20024;-65
2022/05/28 03:05:51;;;;;;;10.98;2.38;;;;;;;;;;6181275;23;20060;-65
2022/05/28 03:08:17;;;;;;;13.35;2.30;;;;;;;;;;6170037;23;20500;-64
2022/05/28 03:10:44;;;;;;;10.02;2.30;;;;;;;;;;6172684;23;20530;-65
2022/05/28 03:13:10;;;;;;;13.07;2.63;;;;;;;;;;6173328;23;20103;-66
2022/05/28 03:15:37;;;;;;;15.43;2.70;;;;;;;;;;6180912;23;20025;-65
2022/05/28 03:18:03;;;;;;;10.50;1.98;;;;;;;;;;6181805;23;20414;-65
2022/05/28 03:20:30;;;;;;;11.07;2.17;;;;;;;;;;6172980;23;20056;-64
2022/05/28 03:22:57;;;;;;;12.13;2.50;;;;;;;;;;6175494;23;20295;-65
2022/05/28 03:25:23;;;;;;;15.07;2.30;;;;;;;;;;6167429;23;20100;-65
2022/05/28 03:27:50;;;;;;;14.30;2.55;;;;;;;;;;6180622;23;20021;-65
2022/05/28 03:30:16;;;;;;;14.52;2.60;;;;;;;;;;6172134;23;20104;-65
2022/05/28 03:32:43;;;;;;;12.60;2.17;;;;;;;;;;6181484;23;20044;-65
2022/05/28 03:35:09;;;;;;;11.25;2.00;;;;;;;;;;6173042;23;20103;-65
2022/05/28 03:37:35;;;;;;;15.18;2.40;;;;;;;;;;6174823;23;20111;-66
2022/05/28 03:40:03;;;;;;;12.25;2.40;;;;;;;;;;6149489;23;20056;-65
2022/05/28 03:42:29;;;;;;;10.70;2.28;;;;;;;;;;6172721;23;20055;-66
2022/05/28 03:44:56;;;;;;;14.10;2.22;;;;;;;;;;6181627;23;20085;-65
2022/05/28 03:47:22;;;;;;;11.60;2.13;;;;;;;;;;6172365;23;20417;-65
2022/05/28 03:49:49;;;;;;;10.65;2.00;;;;;;;;;;6181272;23;20104;-65
2022/05/28 03:52:15;;;;;;;12.68;2.25;;;;;;;;;;6165344;23;20021;-65
2022/05/28 03:54:45;;;;;;;10.55;2.30;;;;;;;;;;6180750;23;20099;-65
2022/05/28 03:57:13;;;;;;;11.95;1.88;;;;;;;;;;6154483;23;20021;-65
2022/05/28 03:59:39;;;;;;;9.10;2.20;;;;;;;;;;6174210;23;20530;-65
2022/05/28 04:02:05;;;;;;;12.82;2.40;;;;;;;;;;6181778;23;20104;-66
2022/05/28 04:04:33;;;;;;;10.80;1.77;;;;;;;;;;6167579;23;20017;-65
2022/05/28 04:07:00;;;;;;;10.20;2.10;;;;;;;;;;6176190;23;20053;-65
2022/05/28 04:09:27;;;;;;;15.38;1.80;;;;;;;;;;6174663;23;20111;-65
2022/05/28 04:11:53;;;;;;;10.88;1.60;;;;;;;;;;6183707;23;20510;-64
2022/05/28 04:14:20;;;;;;;14.38;2.30;;;;;;;;;;6176153;23;20063;-65
2022/05/28 04:16:46;;;;;;;14.30;1.95;;;;;;;;;;6183092;23;20023;-65
2022/05/28 04:19:12;;;;;;;11.95;1.80;;;;;;;;;;6174694;23;20017;-65
2022/05/28 04:21:39;;;;;;;8.85;1.80;;;;;;;;;;6173181;23;20023;-65
2022/05/28 04:24:05;;;;;;;7.97;1.83;;;;;;;;;;6184923;23;20081;-65
2022/05/28 04:26:32;;;;;;;12.18;1.80;;;;;;;;;;6176677;23;20100;-65
2022/05/28 04:28:58;;;;;;;10.45;2.00;;;;;;;;;;6183997;23;20063;-66
2022/05/28 04:31:24;;;;;;;11.20;1.90;;;;;;;;;;6171928;23;20383;-65
2022/05/28 04:33:51;;;;;;;13.88;2.65;;;;;;;;;;6177258;23;20213;-65
2022/05/28 04:36:17;;;;;;;11.02;1.60;;;;;;;;;;6156842;23;20096;-65
2022/05/28 04:38:44;;;;;;;10.32;2.10;;;;;;;;;;6174852;23;20103;-65
2022/05/28 04:41:10;;;;;;;14.77;2.30;;;;;;;;;;6183219;23;20475;-65
2022/05/28 04:43:36;;;;;;;9.40;1.75;;;;;;;;;;6176803;23;20053;-65
2022/05/28 04:46:03;;;;;;;11.40;2.15;;;;;;;;;;6178439;23;20111;-66
2022/05/28 04:48:29;;;;;;;10.73;1.60;;;;;;;;;;6168070;23;20025;-65
2022/05/28 04:50:55;;;;;;;7.63;1.67;;;;;;;;;;6182873;23;20017;-66
2022/05/28 04:53:22;;;;;;;8.90;1.50;;;;;;;;;;6174225;23;20048;-66
2022/05/28 04:55:48;;;;;;;12.45;2.15;;;;;;;;;;6182802;23;20052;-65
2022/05/28 04:58:15;;;;;;;9.38;1.70;;;;;;;;;;6182857;23;20351;-65
2022/05/28 05:00:43;;;;;;;10.40;1.48;;;;;;;;;;6170690;23;20139;-66
2022/05/28 05:03:09;;;;;;;5.82;1.50;;;;;;;;;;6176975;23;20052;-64
2022/05/28 05:05:35;;;;;;;12.18;1.55;;;;;;;;;;6175065;23;20028;-66
2022/05/28 05:08:02;;;;;;;11.52;1.95;;;;;;;;;;6183810;23;20063;-66
2022/05/28 05:10:28;;;;;;;8.10;1.60;;;;;;;;;;6174483;23;20119;-65
2022/05/28 05:12:54;;;;;;;10.77;1.40;;;;;;;;;;6183435;23;20084;-66
2022/05/28 05:15:21;;;;;;;4.63;1.33;;;;;;;;;;6169780;23;20048;-66
2022/05/28 05:17:48;;;;;;;9.65;1.77;;;;;;;;;;6177762;23;20462;-65
2022/05/28 05:20:14;;;;;;;7.35;1.20;;;;;;;;;;6183050;23;20056;-65
2022/05/28 05:22:40;;;;;;;7.68;1.20;;;;;;;;;;6175101;23;20109;-65
2022/05/28 05:25:07;;;;;;;7.47;1.55;;;;;;;;;;6182949;23;20099;-66
2022/05/28 05:27:34;;;;;;;6.90;1.10;;;;;;;;;;6170511;23;20398;-66
2022/05/28 05:30:00;;;;;;;9.63;1.83;;;;;;;;;;6176635;23;20112;-65
2022/05/28 05:32:27;;;;;;;8.85;1.58;;;;;;;;;;6175208;23;20080;-65
2022/05/28 05:34:53;;;;;;;6.47;1.60;;;;;;;;;;6183023;23;20104;-66
2022/05/28 05:37:19;;;;;;;6.85;1.13;;;;;;;;;;6182177;23;20053;-66
2022/05/28 05:39:46;;;;;;;6.90;1.23;;;;;;;;;;6174638;23;20028;-66
2022/05/28 05:42:12;;;;;;;11.88;1.38;;;;;;;;;;6177244;23;20063;-65
2022/05/28 05:44:39;;;;;;;10.75;1.40;;;;;;;;;;6169080;23;20047;-65
2022/05/28 05:47:06;;;;;;;7.97;1.23;;;;;;;;;;6183442;23;20409;-66
2022/05/28 05:49:32;;;;;;;8.98;1.13;;;;;;;;;;6175381;23;20099;-65
2022/05/28 05:51:59;;;;;;;5.60;1.17;;;;;;;;;;6183141;23;20025;-66
2022/05/28 05:54:25;;;;;;;7.53;1.17;;;;;;;;;;6175300;23;20372;-66
2022/05/28 05:56:53;;;;;;;10.15;1.05;;;;;;;;;;6175313;23;20048;-65
2022/05/28 05:59:19;;;;;;;10.05;1.85;;;;;;;;;;6178162;23;20103;-66
2022/05/28 06:01:46;;;;;;;7.75;1.13;;;;;;;;;;6175031;23;20129;-66
2022/05/28 06:04:12;;;;;;;8.10;1.00;;;;;;;;;;6182894;23;20017;-66
2022/05/28 06:06:39;;;;;;;7.93;1.50;;;;;;;;;;6175620;23;20104;-66
2022/05/28 06:09:05;;;;;;;9.25;1.20;;;;;;;;;;6180420;23;20096;-64
2022/05/28 06:11:32;;;;;;;11.68;1.38;;;;;;;;;;6164731;23;20705;-65
2022/05/28 06:13:58;;;;;;;9.32;1.02;;;;;;;;;;6181131;23;20025;-65
2022/05/28 06:16:25;;;;;;;11.82;1.27;;;;;;;;;;6181603;23;20064;-66
2022/05/28 06:18:51;;;;;;;5.13;0.88;;;;;;;;;;6173989;23;20100;-66
2022/05/28 06:21:18;;;;;;;5.30;1.00;;;;;;;;;;6181560;23;20100;-65
2022/05/28 06:23:44;;;;;;;8.20;1.23;;;;;;;;;;6168729;23;20413;-65
2022/05/28 06:26:11;;;;;;;7.15;1.00;;;;;;;;;;6175031;23;20027;-66
2022/05/28 06:28:39;;;;;;;8.45;1.48;;;;;;;;;;6173055;23;20052;-64
2022/05/28 06:31:07;;;;;;;6.50;1.10;;;;;;;;;;6181655;23;20103;-65
2022/05/28 06:33:34;;;;;;;4.73;0.90;;;;;;;;;;6174129;23;20053;-66
2022/05/28 06:36:02;;;;;;;5.28;1.02;;;;;;;;;;6181551;23;20104;-66
2022/05/28 06:38:28;;;;;;;4.05;0.95;;;;;;;;;;6175162;23;20032;-65
2022/05/28 06:40:55;;;;;;;8.05;1.38;;;;;;;;;;6171578;23;20124;-66
2022/05/28 06:43:21;;;;;;;6.53;1.20;;;;;;;;;;6181103;23;20048;-65
2022/05/28 06:45:48;;;;;;;8.35;1.20;;;;;;;;;;6174360;23;20028;-65
2022/05/28 06:48:14;;;;;;;9.25;1.17;;;;;;;;;;6181682;23;20048;-66
2022/05/28 06:53:26;;;;;;;7.53;1.40;;;;;;;;;;6175104;23;20053;-66
2022/05/28 06:55:52;;;;;;;6.10;1.42;;;;;;;;;;6172820;23;20518;-65
2022/05/28 06:58:18;;;;;;;7.63;1.05;;;;;;;;;;6181271;23;20021;-65
2022/05/28 07:00:45;;;;;;;10.15;1.30;;;;;;;;;;6181559;23;20057;-65
2022/05/28 07:03:15;;;;;;;9.20;1.50;;;;;;;;;;6173429;23;20025;-65
2022/05/28 07:05:42;;;;;;;9.27;1.38;;;;;;;;;;6175488;23;20116;-65
2022/05/28 07:08:09;;;;;;;9.43;0.98;;;;;;;;;;6167262;23;20100;-66
2022/05/28 07:10:38;;;;;;;11.18;1.58;;;;;;;;;;6181531;23;20027;-66
2022/05/28 07:13:05;;;;;;;9.50;2.28;;;;;;;;;;6173956;23;20021;-65
2022/05/28 07:15:32;;;;;;;5.60;1.48;;;;;;;;;;6181271;23;20063;-65
2022/05/28 07:17:58;;;;;;;7.78;1.08;;;;;;;;;;6172661;23;20092;-66
2022/05/28 07:20:24;;;;;;;9.40;1.20;;;;;;;;;;6169959;23;20123;-65
2022/05/28 07:22:51;;;;;;;3.80;1.33;;;;;;;;;;6180767;23;20394;-65
2022/05/28 07:25:17;;;;;;;7.95;1.48;;;;;;;;;;6173752;23;20095;-67
2022/05/28 07:27:43;;;;;;;7.75;1.23;;;;;;;;;;6181101;23;20025;-65
2022/05/28 07:30:10;;;;;;;8.95;1.40;;;;;;;;;;6172847;23;20387;-66
2022/05/28 07:32:36;;;;;;;9.82;1.40;;;;;;;;;;6175439;23;20408;-66
2022/05/28 07:35:03;;;;;;;10.00;1.42;;;;;;;;;;6167473;23;20402;-66
2022/05/28 07:37:30;;;;;;;12.23;1.50;;;;;;;;;;6180024;23;20067;-65
2022/05/28 07:39:57;;;;;;;7.60;1.50;;;;;;;;;;6181464;23;20115;-65
2022/05/28 07:42:23;;;;;;;4.55;0.82;;;;;;;;;;6172941;23;20107;-65
2022/05/28 07:44:50;;;;;;;5.88;1.10;;;;;;;;;;6182838;23;20112;-65
2022/05/28 07:47:16;;;;;;;10.45;1.30;;;;;;;;;;6168060;23;20064;-65
2022/05/28 07:49:42;;;;;;;9.25;1.45;;;;;;;;;;6176943;23;20112;-66
2022/05/28 07:52:08;;;;;;;9.82;1.52;;;;;;;;;;6175683;23;20437;-66
2022/05/28 07:54:35;;;;;;;9.10;1.27;;;;;;;;;;6183740;23;20393;-65
2022/05/28 07:57:01;;;;;;;6.90;1.30;;;;;;;;;;6175772;23;20021;-65
2022/05/28 07:59:29;;;;;;;9.75;1.92;;;;;;;;;;6180539;23;20017;-65
2022/05/28 08:01:56;;;;;;;9.02;1.38;;;;;;;;;;6173487;23;20024;-66
2022/05/28 08:04:23;;;;;;;9.70;1.23;;;;;;;;;;6174205;23;20104;-65
2022/05/28 08:06:49;;;;;;;12.57;1.33;;;;;;;;;;6182892;23;20052;-66
2022/05/28 08:09:15;;;;;;;9.38;1.25;;;;;;;;;;6174461;23;20104;-66
2022/05/28 08:11:42;;;;;;;8.80;1.08;;;;;;;;;;6182505;23;20096;-66
2022/05/28 08:14:08;;;;;;;8.88;1.65;;;;;;;;;;6169418;23;20486;-66
2022/05/28 08:16:35;;;;;;;9.45;1.70;;;;;;;;;;6177231;23;20053;-66
2022/05/28 08:19:01;;;;;;;9.35;1.67;;;;;;;;;;6182199;23;20496;-65
2022/05/28 08:24:12;;;;;;;8.88;1.63;;;;;;;;;;6182608;23;20402;-66
2022/05/28 08:26:39;;;;;;;8.88;1.60;;;;;;;;;;6175062;23;20025;-65
2022/05/28 08:29:05;;;;;;;10.63;1.70;;;;;;;;;;6176739;23;20073;-65
2022/05/28 08:31:31;;;;;;;8.32;1.60;;;;;;;;;;6168914;23;20123;-66
2022/05/28 08:33:58;;;;;;;8.98;1.75;;;;;;;;;;6182676;23;20021;-66
2022/05/28 08:36:24;;;;;;;9.63;1.52;;;;;;;;;;6173801;23;20027;-65
2022/05/28 08:38:51;;;;;;;7.65;1.10;;;;;;;;;;6182519;23;20099;-65
2022/05/28 08:41:21;;;;;;;11.75;1.52;;;;;;;;;;6181981;23;20529;-66
2022/05/28 08:43:49;;;;;;;8.32;1.58;;;;;;;;;;6163880;23;20099;-66
2022/05/28 08:46:16;;;;;;;11.80;1.60;;;;;;;;;;6180159;23;20021;-66
2022/05/28 08:48:45;;;;;;;9.68;1.05;;;;;;;;;;6174094;23;20017;-65
2022/05/28 08:51:24;;;;;;;7.80;1.20;;;;;;;;;;6182414;23;20345;-66
2022/05/28 08:53:50;;;;;;;;;;;;;;;;;;6175603;23;20072;-66
2022/05/28 08:56:19;;;;;;;5.90;1.38;;;;;;;;;;6176051;23;20262;-66
2022/05/28 08:58:45;;;;;;;8.10;1.20;;;;;;;;;;6173349;23;20052;-66
2022/05/28 09:01:19;;;;;;;7.97;1.33;;;;;;;;;;6181672;23;20027;-67
2022/05/28 09:03:54;;;;;;;7.57;1.52;;;;;;;;;;6182374;23;20024;-67
2022/05/28 09:06:41;;;;;;;7.25;1.70;;;;;;;;;;6174391;23;20104;-67
2022/05/28 09:09:09;;;;;;;11.52;1.70;;;;;;;;;;6175744;23;20552;-67
2022/05/28 09:11:41;;;;;;;12.25;1.63;;;;;;;;;;6173880;23;20100;-67
2022/05/28 09:14:26;;;;;;;7.45;1.33;;;;;;;;;;6182183;23;20100;-67
2022/05/28 09:17:13;;;;;;;10.95;1.48;;;;;;;;;;6148252;23;20024;-66
2022/05/28 09:19:40;;;;;;;6.78;1.38;;;;;;;;;;6161501;23;20107;-67
2022/05/28 09:22:07;;;;;;;6.00;1.70;;;;;;;;;;6169458;23;20521;-65
2022/05/28 09:24:34;;;;;;;7.97;1.67;;;;;;;;;;6177931;23;20104;-67
2022/05/28 09:27:16;;;;;;;10.30;1.55;;;;;;;;;;6174296;23;20052;-66
2022/05/28 09:29:59;;;;;;;7.93;1.15;;;;;;;;;;6181791;23;20048;-66
2022/05/28 09:32:31;;;;;;;6.30;1.40;;;;;;;;;;6174266;23;20029;-66
2022/05/28 09:35:09;;;;;;;6.80;1.30;;;;;;;;;;6176237;23;20032;-67
2022/05/28 09:37:55;;;;;;;10.15;1.50;;;;;;;;;;6169075;23;20025;-67
2022/05/28 09:40:26;;;;;;;8.27;1.35;;;;;;;;;;6181189;23;20028;-67
2022/05/28 09:43:12;;;;;;;9.60;1.60;;;;;;;;;;6182188;23;20021;-67
2022/05/28 09:45:57;;;;;;;13.88;1.83;;;;;;;;;;6181231;23;20426;-66
2022/05/28 09:48:25;;;;;;;7.88;1.50;;;;;;;;;;6178171;23;20049;-66
2022/05/28 09:50:51;;;;;;;;;;;;;;;;;;6166954;23;20023;-66
2022/05/28 09:56:11;;;;;;;9.05;1.38;;;;;;;;;;6173936;23;20096;-67
2022/05/28 09:58:39;;;;;;;5.55;1.40;;;;;;;;;;6181942;23;20028;-66
2022/05/28 10:01:16;;;;;;;7.07;1.67;;;;;;;;;;6174991;23;20343;-66
2022/05/28 10:06:30;;;;;;;8.80;1.70;;;;;;;;;;6172401;23;20534;-67
2022/05/28 10:08:57;;;;;;;7.60;1.65;;;;;;;;;;6182159;23;20029;-67
2022/05/28 10:11:23;;;;;;;8.07;1.52;;;;;;;;;;6173862;23;20059;-66
2022/05/28 10:13:54;;;;;;;8.70;1.60;;;;;;;;;;6181655;23;20021;-67
2022/05/28 10:16:22;;;;;;;10.10;1.40;;;;;;;;;;6168036;23;20112;-66
2022/05/28 10:19:16;;;;;;;7.85;1.60;;;;;;;;;;6174788;23;20028;-66
2022/05/28 10:21:47;;;;;;;10.80;1.75;;;;;;;;;;6173027;23;20092;-66
2022/05/28 10:24:16;;;;;;;9.05;1.33;;;;;;;;;;6180498;23;20048;-66
2022/05/28 10:26:48;;;;;;;12.07;1.75;;;;;;;;;;6181672;23;20017;-66
2022/05/28 10:29:17;;;;;;;10.63;1.80;;;;;;;;;;6171969;23;20100;-66
2022/05/28 10:31:45;;;;;;;10.75;1.90;;;;;;;;;;6172004;23;20353;-66
2022/05/28 10:34:27;;;;;;;8.40;1.80;;;;;;;;;;6172578;23;20476;-66
2022/05/28 10:36:53;;;;;;;4.95;1.45;;;;;;;;;;6181582;23;20025;-66
2022/05/28 10:39:19;;;;;;;12.55;1.75;;;;;;;;;;6174372;23;20103;-66
2022/05/28 10:41:49;;;;;;;8.00;1.67;;;;;;;;;;6182093;23;20630;-66
2022/05/28 10:44:16;;;;;;;9.85;1.55;;;;;;;;;;6167832;23;20027;-67
2022/05/28 10:46:42;;;;;;;9.40;1.48;;;;;;;;;;6176510;23;20120;-66
2022/05/28 10:49:11;;;;;;;5.70;1.58;;;;;;;;;;6182102;23;20100;-67
2022/05/28 10:51:58;;;;;;;7.32;1.70;;;;;;;;;;6174037;23;20107;-66
2022/05/28 10:54:35;;;;;;;5.93;1.40;;;;;;;;;;6181993;23;20029;-66
2022/05/28 10:57:20;;;;;;;7.57;1.60;;;;;;;;;;6175106;23;20085;-67
2022/05/28 10:59:47;;;;;;;8.32;1.52;;;;;;;;;;6173497;23;20107;-66
2022/05/28 11:02:27;;;;;;;8.02;1.52;;;;;;;;;;6173459;23;20048;-67
2022/05/28 11:04:53;;;;;;;9.68;1.95;;;;;;;;;;6181999;23;20028;-67
2022/05/28 11:07:20;;;;;;;8.85;1.75;;;;;;;;;;6173817;23;20035;-66
2022/05/28 11:09:46;;;;;;;5.65;1.75;;;;;;;;;;6181940;23;20287;-67
2022/05/28 11:12:21;;;;;;;5.22;1.30;;;;;;;;;;6169038;23;20112;-66
2022/05/28 11:14:57;;;;;;;4.45;1.50;;;;;;;;;;6175999;23;20085;-66
2022/05/28 11:17:29;;;;;;;8.50;1.83;;;;;;;;;;6179288;23;20538;-66
2022/05/28 11:20:15;;;;;;;8.45;1.60;;;;;;;;;;6183317;23;20100;-67
2022/05/28 11:23:00;;;;;;;10.45;1.65;;;;;;;;;;6184583;23;20096;-67
2022/05/28 11:25:38;;;;;;;5.20;1.40;;;;;;;;;;6173837;23;20470;-66
2022/05/28 11:28:04;;;;;;;;;;;;;;;;;;6177728;23;20207;-66
2022/05/28 11:30:33;;;;;;;11.32;1.67;;;;;;;;;;6174303;23;19916;-65
2022/05/28 11:33:18;;;;;;;5.75;1.27;;;;;;;;;;6183395;23;20053;-66
2022/05/28 11:35:55;;;;;;;6.82;1.30;;;;;;;;;;6175631;23;20096;-66
2022/05/28 11:38:24;;;;;;;7.53;1.70;;;;;;;;;;6182732;23;20056;-66
2022/05/28 11:41:01;;;;;;;7.68;1.40;;;;;;;;;;6170001;23;20103;-65
2022/05/28 11:43:30;;;;;;;6.38;1.40;;;;;;;;;;6177337;23;20096;-65
2022/05/28 11:45:56;;;;;;;7.60;1.33;;;;;;;;;;6175595;23;20591;-67
2022/05/28 11:48:26;;;;;;;7.88;1.25;;;;;;;;;;6183358;23;20027;-67
2022/05/28 11:51:29;;;;;;;8.52;1.67;;;;;;;;;;6183308;23;20093;-67
2022/05/28 11:53:52;;;;;;;3.70;1.00;;;;;;;;;;6173899;23;20091;-66
2022/05/28 11:56:21;;;;;;;8.57;1.58;;;;;;;;;;6177067;23;20056;-66
2022/05/28 11:58:59;;;;;;;6.95;1.60;;;;;;;;;;6173144;23;20031;-65
2022/05/28 12:01:27;;;;;;;4.43;1.13;;;;;;;;;;6182650;23;20067;-66
2022/05/28 12:03:54;;;;;;;3.20;0.88;;;;;;;;;;6174971;23;20072;-65
2022/05/28 12:06:37;;;;;;;5.15;1.40;;;;;;;;;;6183037;23;20023;-65
2022/05/28 12:09:09;;;;;;;6.20;1.30;;;;;;;;;;6169039;23;20063;-66
2022/05/28 12:11:41;;;;;;;5.47;1.27;;;;;;;;;;6179018;23;20060;-65
2022/05/28 12:14:25;;;;;;;6.00;1.35;;;;;;;;;;6176163;23;20504;-67
2022/05/28 12:17:10;;;;;;;5.47;1.17;;;;;;;;;;6183336;23;20403;-67
2022/05/28 12:19:57;;;;;;;6.75;1.40;;;;;;;;;;6175096;23;20489;-67
2022/05/28 12:22:26;;;;;;;5.75;1.30;;;;;;;;;;6177494;23;20029;-67
2022/05/28 12:25:03;;;;;;;5.18;1.63;;;;;;;;;;6169744;23;20072;-67
2022/05/28 12:27:49;;;;;;;6.13;1.48;;;;;;;;;;6156006;23;20103;-67
2022/05/28 12:30:24;;;;;;;8.93;1.40;;;;;;;;;;6178217;23;20104;-66
2022/05/28 12:32:51;;;;;;;9.13;1.40;;;;;;;;;;6182314;23;20048;-66
2022/05/28 12:35:17;;;;;;;5.43;1.17;;;;;;;;;;6179437;23;20092;-66
2022/05/28 12:37:53;;;;;;;9.95;1.50;;;;;;;;;;6167178;23;20076;-66
2022/05/28 12:40:29;;;;;;;4.20;1.20;;;;;;;;;;6182112;23;20067;-66
2022/05/28 12:42:59;;;;;;;4.93;1.25;;;;;;;;;;6174515;23;20100;-67
2022/05/28 12:45:29;;;;;;;9.80;1.40;;;;;;;;;;6182309;23;20028;-66
2022/05/28 12:48:11;;;;;;;4.93;1.20;;;;;;;;;;6175515;23;20418;-66
2022/05/28 12:50:37;;;;;;;3.17;1.10;;;;;;;;;;6177412;23;20060;-67
2022/05/28 12:53:08;;;;;;;6.28;1.10;;;;;;;;;;6170041;23;20076;-66
2022/05/28 12:55:36;;;;;;;5.35;1.42;;;;;;;;;;6183168;23;20100;-66
2022/05/28 12:58:03;;;;;;;3.72;1.30;;;;;;;;;;6183605;23;20378;-66
2022/05/28 13:00:31;;;;;;;5.00;1.40;;;;;;;;;;6177784;23;20100;-66
2022/05/28 13:02:58;;;;;;;4.95;1.30;;;;;;;;;;6183718;23;20095;-67
2022/05/28 13:05:27;;;;;;;5.60;1.25;;;;;;;;;;6166467;23;20030;-66
2022/05/28 13:07:56;;;;;;;5.93;1.25;;;;;;;;;;6181062;23;20056;-66
2022/05/28 13:10:27;;;;;;;5.03;1.30;;;;;;;;;;6173993;23;20096;-66
2022/05/28 13:13:02;;;;;;;6.13;1.23;;;;;;;;;;6183098;23;20492;-66
2022/05/28 13:15:40;;;;;;;7.50;1.58;;;;;;;;;;6174752;23;20029;-67
2022/05/28 13:18:25;;;;;;;6.68;1.48;;;;;;;;;;6176316;23;20021;-66
2022/05/28 13:20:51;;;;;;;7.50;1.75;;;;;;;;;;6169848;23;20060;-66
2022/05/28 13:23:31;;;;;;;10.30;2.10;;;;;;;;;;6181874;23;20138;-66
2022/05/28 13:26:16;;;;;;;5.65;1.60;;;;;;;;;;6182440;23;20025;-66
2022/05/28 13:28:51;;;;;;;7.97;1.50;;;;;;;;;;6181059;23;20047;-66
2022/05/28 13:31:20;;;;;;;7.85;1.65;;;;;;;;;;6178352;23;20073;-66
2022/05/28 13:33:46;;;;;;;7.93;1.73;;;;;;;;;;6167140;23;20060;-66
2022/05/28 13:36:14;;;;;;;9.02;2.25;;;;;;;;;;6181829;23;20409;-66
2022/05/28 13:38:45;;;;;;;7.70;1.60;;;;;;;;;;6174519;23;20071;-65
2022/05/28 13:41:14;;;;;;;6.35;1.35;;;;;;;;;;6182152;23;20344;-65
2022/05/28 13:43:43;;;;;;;8.75;1.95;;;;;;;;;;6175193;23;20021;-66
2022/05/28 13:46:11;;;;;;;5.47;1.52;;;;;;;;;;6150201;23;20028;-67
2022/05/28 13:48:40;;;;;;;10.80;1.80;;;;;;;;;;6169440;23;20371;-67
2022/05/28 13:51:08;;;;;;;6.00;1.30;;;;;;;;;;6181062;23;20100;-67
2022/05/28 13:53:34;;;;;;;;;;;;;;;;;;6183423;23;20060;-66
2022/05/28 13:56:02;;;;;;;9.25;1.42;;;;;;;;;;6175671;23;19995;-66
2022/05/28 13:58:30;;;;;;;5.63;1.23;;;;;;;;;;6181983;23;20057;-66
2022/05/28 14:00:59;;;;;;;9.18;1.42;;;;;;;;;;6167164;23;20073;-65
2022/05/28 14:03:27;;;;;;;7.15;1.27;;;;;;;;;;6178511;23;20029;-66
2022/05/28 14:05:53;;;;;;;4.07;1.00;;;;;;;;;;6174864;23;20048;-66
2022/05/28 14:08:19;;;;;;;4.40;1.40;;;;;;;;;;6180971;23;20103;-65
2022/05/28 14:10:46;;;;;;;3.28;1.10;;;;;;;;;;6182133;23;20482;-65
2022/05/28 14:13:26;;;;;;;6.50;1.15;;;;;;;;;;6169960;23;20116;-65
2022/05/28 14:15:53;;;;;;;5.10;1.30;;;;;;;;;;6175759;23;20327;-66
2022/05/28 14:18:20;;;;;;;5.53;1.17;;;;;;;;;;6173818;23;20199;-66
2022/05/28 14:20:47;;;;;;;4.40;1.30;;;;;;;;;;6181776;23;20020;-65
2022/05/28 14:23:23;;;;;;;5.18;1.20;;;;;;;;;;6174500;23;20047;-67
2022/05/28 14:25:51;;;;;;;5.72;1.30;;;;;;;;;;6182998;23;20498;-66
2022/05/28 14:28:18;;;;;;;;;;;;;;;;;;6167929;23;20024;-66
2022/05/28 14:30:44;;;;;;;6.60;1.30;;;;;;;;;;6176072;23;20004;-66
2022/05/28 14:33:24;;;;;;;5.10;1.35;;;;;;;;;;6181155;23;20025;-66
2022/05/28 14:35:50;;;;;;;6.85;1.38;;;;;;;;;;6178176;23;20071;-66
2022/05/28 14:38:24;;;;;;;6.20;1.55;;;;;;;;;;6180968;23;20124;-67
2022/05/28 14:40:51;;;;;;;10.25;1.75;;;;;;;;;;6171912;23;20099;-66
2022/05/28 14:43:23;;;;;;;6.05;1.50;;;;;;;;;;6172625;23;20035;-66
2022/05/28 14:45:49;;;;;;;6.60;1.65;;;;;;;;;;6174084;23;20025;-66
2022/05/28 14:48:18;;;;;;;8.20;1.60;;;;;;;;;;6181720;23;20096;-66
2022/05/28 14:50:48;;;;;;;8.70;1.73;;;;;;;;;;6174362;23;20104;-67
2022/05/28 14:53:16;;;;;;;11.07;1.92;;;;;;;;;;6182365;23;20075;-66
2022/05/28 14:55:42;;;;;;;11.48;2.22;;;;;;;;;;6168992;23;20092;-66
2022/05/28 14:58:17;;;;;;;9.95;2.08;;;;;;;;;;6175148;23;20063;-66
2022/05/28 15:00:44;;;;;;;9.35;1.92;;;;;;;;;;6181636;23;20028;-66
2022/05/28 15:03:15;;;;;;;8.27;1.60;;;;;;;;;;6173443;23;20099;-67
2022/05/28 15:05:42;;;;;;;12.30;1.77;;;;;;;;;;6181787;23;20462;-67